createdAt,value
2023-02-07T00:00:46.998Z,11.98
2023-02-07T00:03:18.897Z,12.75
2023-02-07T00:05:50.753Z,13.63
2023-02-07T00:08:22.613Z,13.75
2023-02-07T00:10:54.458Z,12.13
2023-02-07T00:13:26.319Z,12.02
2023-02-07T00:15:59.480Z,13.82
2023-02-07T00:18:32.308Z,12.30
2023-02-07T00:21:10.253Z,13.00
2023-02-07T00:23:43.156Z,13.50
2023-02-07T00:26:17.124Z,12.05
2023-02-07T00:28:51.831Z,13.32
2023-02-07T00:31:29.252Z,15.07
2023-02-07T00:34:04.164Z,14.73
2023-02-07T00:36:37.618Z,13.52
2023-02-07T00:39:14.571Z,16.80
2023-02-07T00:41:48.058Z,17.45
2023-02-07T00:44:20.641Z,15.98
2023-02-07T00:46:52.540Z,13.18
2023-02-07T00:49:24.461Z,15.35
2023-02-07T00:51:56.421Z,15.75
2023-02-07T00:54:28.297Z,16.75
2023-02-07T00:57:00.172Z,14.98
2023-02-07T00:59:32.038Z,15.00
2023-02-07T01:02:03.985Z,14.63
2023-02-07T01:04:35.936Z,14.60
2023-02-07T01:07:08.984Z,11.20
2023-02-07T01:09:40.896Z,12.63
2023-02-07T01:12:12.747Z,14.85
2023-02-07T01:14:44.695Z,13.10
2023-02-07T01:17:16.848Z,9.77
2023-02-07T01:19:48.741Z,11.18
2023-02-07T01:22:20.595Z,13.45
2023-02-07T01:24:56.393Z,10.52
2023-02-07T01:27:28.262Z,11.65
2023-02-07T01:30:00.401Z,10.88
2023-02-07T01:32:33.310Z,8.82
2023-02-07T01:35:05.440Z,8.77
2023-02-07T01:37:37.601Z,11.95
2023-02-07T01:40:11.624Z,8.00
2023-02-07T01:42:43.519Z,9.68
2023-02-07T01:45:28.127Z,9.65
2023-02-07T01:48:07.813Z,9.00
2023-02-07T01:50:46.663Z,10.10
2023-02-07T01:53:22.804Z,10.95
2023-02-07T01:55:58.974Z,10.00
2023-02-07T01:58:32.719Z,9.60
2023-02-07T02:01:10.928Z,10.00
2023-02-07T02:03:47.044Z,10.07
2023-02-07T02:06:19.740Z,10.43
2023-02-07T02:08:57.265Z,10.88
2023-02-07T02:12:01.251Z,9.30
2023-02-07T02:14:53.028Z,9.82
2023-02-07T02:20:54.189Z,10.82
2023-02-07T02:23:46.505Z,9.02
2023-02-07T02:26:44.874Z,10.27
2023-02-07T02:29:37.943Z,9.57
2023-02-07T02:32:13.400Z,9.02
2023-02-07T02:35:05.570Z,9.75
2023-02-07T02:37:48.263Z,11.07
2023-02-07T02:40:20.625Z,9.40
2023-02-07T02:43:27.125Z,8.43
2023-02-07T02:46:07.114Z,8.73
2023-02-07T02:48:40.507Z,9.82
2023-02-07T02:51:12.451Z,12.85
2023-02-07T02:53:55.531Z,10.65
2023-02-07T02:56:59.318Z,12.40
2023-02-07T02:59:37.049Z,11.35
2023-02-07T03:02:39.838Z,13.07
2023-02-07T03:05:26.729Z,12.75
2023-02-07T03:08:09.357Z,12.18
2023-02-07T03:11:03.252Z,9.90
2023-02-07T03:13:56.403Z,10.60
2023-02-07T03:16:50.857Z,11.68
2023-02-07T03:19:40.592Z,12.15
2023-02-07T03:22:16.323Z,12.85
2023-02-07T03:24:55.613Z,8.40
2023-02-07T03:27:30.944Z,9.73
2023-02-07T03:30:10.974Z,9.65
2023-02-07T03:32:47.101Z,11.48
2023-02-07T03:35:24.966Z,14.48
2023-02-07T03:37:59.553Z,10.82
2023-02-07T03:40:37.660Z,10.50
2023-02-07T03:43:22.516Z,10.82
2023-02-07T03:45:54.886Z,10.57
2023-02-07T03:48:26.841Z,12.50
2023-02-07T03:50:58.652Z,10.73
2023-02-07T03:53:30.583Z,11.77
2023-02-07T03:56:02.616Z,9.60
2023-02-07T03:58:34.684Z,10.43
2023-02-07T04:01:06.577Z,10.45
2023-02-07T04:03:38.475Z,10.90
2023-02-07T04:06:10.664Z,11.20
2023-02-07T04:08:42.957Z,10.40
2023-02-07T04:11:14.852Z,12.63
2023-02-07T04:13:46.636Z,13.85
2023-02-07T04:16:18.641Z,15.45
2023-02-07T04:18:50.585Z,13.07
2023-02-07T04:21:22.483Z,13.90
2023-02-07T04:23:54.425Z,10.48
2023-02-07T04:26:26.329Z,11.88
2023-02-07T04:28:58.213Z,11.40
2023-02-07T04:31:30.199Z,15.18
2023-02-07T04:34:02.101Z,12.07
2023-02-07T04:36:33.976Z,12.50
2023-02-07T04:39:06.117Z,10.95
2023-02-07T04:41:37.983Z,11.32
2023-02-07T04:44:09.833Z,12.02
2023-02-07T04:46:41.692Z,12.10
2023-02-07T04:49:13.532Z,10.60
2023-02-07T04:51:45.434Z,11.38
2023-02-07T04:54:17.286Z,11.55
2023-02-07T04:56:49.216Z,11.98
2023-02-07T04:59:21.143Z,12.57
2023-02-07T05:01:53.010Z,13.35
2023-02-07T05:04:24.992Z,12.93
2023-02-07T05:06:56.870Z,10.65
2023-02-07T05:09:28.802Z,12.50
2023-02-07T05:12:00.669Z,10.95
2023-02-07T05:14:32.541Z,12.65
2023-02-07T05:17:04.592Z,12.70
2023-02-07T05:19:36.474Z,13.15
2023-02-07T05:22:09.857Z,12.30
2023-02-07T05:24:41.775Z,14.48
2023-02-07T05:27:13.606Z,9.98
2023-02-07T05:29:45.496Z,10.73
2023-02-07T05:32:36.334Z,11.48
2023-02-07T05:35:08.213Z,10.90
2023-02-07T05:37:40.185Z,11.38
2023-02-07T05:40:13.206Z,9.90
2023-02-07T05:42:45.113Z,12.00
2023-02-07T05:45:16.976Z,9.27
2023-02-07T05:47:48.897Z,12.80
2023-02-07T05:50:21.087Z,44.35
2023-02-07T05:52:54.139Z,9.93
2023-02-07T05:55:26.278Z,10.13
2023-02-07T05:57:58.229Z,12.82
2023-02-07T06:00:30.271Z,11.35
2023-02-07T06:03:02.227Z,14.95
2023-02-07T06:05:35.242Z,19.05
2023-02-07T06:08:07.352Z,13.27
2023-02-07T06:10:39.333Z,22.33
2023-02-07T06:13:11.162Z,12.25
2023-02-07T06:15:43.055Z,10.65
2023-02-07T06:18:14.909Z,29.00
2023-02-07T06:20:46.853Z,27.30
2023-02-07T06:23:20.811Z,29.63
2023-02-07T06:25:52.691Z,17.40
2023-02-07T06:28:24.629Z,21.20
2023-02-07T06:30:56.582Z,16.00
2023-02-07T06:33:28.572Z,11.65
2023-02-07T06:36:00.514Z,16.92
2023-02-07T06:38:32.463Z,13.30
2023-02-07T06:41:04.594Z,12.02
2023-02-07T06:43:36.905Z,17.38
2023-02-07T06:46:08.721Z,15.32
2023-02-07T06:48:40.762Z,12.80
2023-02-07T06:51:13.456Z,13.27
2023-02-07T06:53:45.314Z,21.92
2023-02-07T06:56:18.623Z,18.40
2023-02-07T06:58:51.215Z,30.85
2023-02-07T07:01:23.056Z,20.67
2023-02-07T07:03:54.961Z,15.43
2023-02-07T07:06:26.760Z,18.67
2023-02-07T07:08:58.628Z,18.70
2023-02-07T07:11:30.566Z,18.63
2023-02-07T07:14:02.737Z,18.58
2023-02-07T07:16:34.634Z,30.48
2023-02-07T07:19:06.752Z,18.95
2023-02-07T07:21:38.747Z,18.42
2023-02-07T07:24:10.572Z,22.35
2023-02-07T07:26:49.264Z,18.55
2023-02-07T07:29:22.018Z,12.40
2023-02-07T07:31:53.974Z,16.17
2023-02-07T07:34:26.110Z,15.70
2023-02-07T07:36:58.427Z,14.75
2023-02-07T07:39:30.324Z,19.17
2023-02-07T07:42:02.176Z,17.00
2023-02-07T07:44:54.908Z,17.60
2023-02-07T07:47:28.015Z,20.27
2023-02-07T07:49:59.893Z,24.52
2023-02-07T07:52:31.751Z,23.77
2023-02-07T07:55:03.729Z,15.63
2023-02-07T07:57:36.383Z,33.22
2023-02-07T08:00:08.891Z,14.43
2023-02-07T08:02:48.360Z,15.80
2023-02-07T08:05:20.263Z,12.45
2023-02-07T08:07:52.092Z,18.77
2023-02-07T08:10:24.035Z,17.45
2023-02-07T08:12:55.876Z,16.45
2023-02-07T08:15:28.041Z,19.55
2023-02-07T08:17:59.999Z,16.98
2023-02-07T08:20:32.465Z,16.83
2023-02-07T08:23:04.403Z,10.50
2023-02-07T08:25:36.397Z,11.00
2023-02-07T08:28:08.892Z,10.75
2023-02-07T08:30:41.024Z,9.18
2023-02-07T08:33:13.585Z,10.00
2023-02-07T08:35:45.520Z,10.57
2023-02-07T08:38:17.449Z,11.18
2023-02-07T08:40:49.795Z,11.27
2023-02-07T08:43:21.664Z,10.23
2023-02-07T08:45:53.689Z,13.93
2023-02-07T08:48:25.644Z,10.77
2023-02-07T08:51:00.683Z,11.82
2023-02-07T08:53:32.596Z,10.48
2023-02-07T08:56:04.811Z,11.23
2023-02-07T08:58:36.714Z,13.73
2023-02-07T09:01:11.304Z,12.38
2023-02-07T09:03:43.303Z,12.70
2023-02-07T09:06:15.196Z,9.00
2023-02-07T09:08:47.080Z,11.82
2023-02-07T09:11:19.063Z,11.13
2023-02-07T09:13:50.908Z,11.75
2023-02-07T09:16:23.500Z,12.55
2023-02-07T09:18:55.633Z,15.20
2023-02-07T09:21:28.404Z,13.63
2023-02-07T09:24:00.696Z,12.05
2023-02-07T09:26:34.410Z,14.02
2023-02-07T09:29:07.513Z,12.20
2023-02-07T09:31:39.438Z,14.30
2023-02-07T09:34:11.550Z,12.88
2023-02-07T09:36:43.573Z,12.52
2023-02-07T09:39:15.780Z,11.82
2023-02-07T09:42:07.909Z,12.30
2023-02-07T09:45:03.556Z,16.98
2023-02-07T09:47:39.228Z,17.00
2023-02-07T09:50:21.028Z,16.90
2023-02-07T09:52:58.254Z,15.48
2023-02-07T09:55:40.198Z,15.57
2023-02-07T09:58:19.344Z,17.75
2023-02-07T10:00:59.748Z,15.50
2023-02-07T10:03:35.820Z,17.25
2023-02-07T10:06:18.834Z,13.57
2023-02-07T10:08:55.431Z,17.52
2023-02-07T10:12:13.232Z,12.90
2023-02-07T10:15:03.864Z,15.30
2023-02-07T10:17:54.348Z,14.70
2023-02-07T10:20:38.370Z,13.15
2023-02-07T10:23:24.604Z,13.93
2023-02-07T10:26:18.130Z,14.13
2023-02-07T10:29:31.937Z,14.18
2023-02-07T10:32:21.640Z,14.43
2023-02-07T10:35:02.601Z,11.40
2023-02-07T10:37:38.349Z,13.63
2023-02-07T10:40:23.051Z,16.85
2023-02-07T10:43:03.109Z,11.57
2023-02-07T10:45:34.996Z,11.95
2023-02-07T10:48:16.683Z,13.43
2023-02-07T10:50:48.816Z,12.90
2023-02-07T10:53:54.251Z,11.60
2023-02-07T10:56:28.288Z,11.80
2023-02-07T10:59:00.587Z,14.15
2023-02-07T11:01:33.675Z,12.23
2023-02-07T11:04:23.287Z,13.57
2023-02-07T11:07:05.336Z,13.10
2023-02-07T11:09:37.909Z,12.75
2023-02-07T11:12:19.224Z,14.55
2023-02-07T11:15:18.255Z,19.05
2023-02-07T11:17:52.460Z,14.70
2023-02-07T11:20:34.532Z,13.13
2023-02-07T11:23:13.360Z,11.00
2023-02-07T11:25:47.603Z,13.93
2023-02-07T11:28:31.131Z,12.65
2023-02-07T11:31:08.117Z,13.52
2023-02-07T11:33:40.967Z,11.98
2023-02-07T11:36:20.708Z,11.75
2023-02-07T11:38:58.550Z,14.88
2023-02-07T11:41:34.814Z,14.50
2023-02-07T11:44:17.906Z,12.55
2023-02-07T11:46:50.368Z,16.25
2023-02-07T11:49:27.363Z,15.27
2023-02-07T11:52:01.726Z,16.92
2023-02-07T11:54:34.443Z,13.27
2023-02-07T11:57:11.836Z,15.25
2023-02-07T12:00:08.033Z,12.15
2023-02-07T12:02:52.331Z,12.20
2023-02-07T12:05:28.425Z,11.00
2023-02-07T12:08:06.014Z,14.38
2023-02-07T12:10:42.175Z,13.88
2023-02-07T12:13:15.840Z,15.68
2023-02-07T12:16:04.167Z,13.20
2023-02-07T12:18:43.185Z,12.43
2023-02-07T12:21:37.408Z,12.57
2023-02-07T12:24:23.410Z,10.65
2023-02-07T12:27:14.936Z,11.23
2023-02-07T12:29:52.603Z,12.35
2023-02-07T12:32:27.707Z,14.07
2023-02-07T12:35:16.320Z,13.57
2023-02-07T12:38:05.925Z,16.85
2023-02-07T12:40:55.831Z,13.90
2023-02-07T12:43:28.579Z,29.27
2023-02-07T12:46:03.900Z,12.73
2023-02-07T12:49:09.693Z,11.75
2023-02-07T12:52:03.926Z,11.45
2023-02-07T12:54:50.150Z,12.57
2023-02-07T12:57:54.175Z,11.43
2023-02-07T13:00:50.596Z,11.38
2023-02-07T13:03:28.562Z,12.65
2023-02-07T13:06:37.061Z,16.33
2023-02-07T13:09:12.021Z,11.25
2023-02-07T13:12:11.308Z,11.23
2023-02-07T13:15:10.604Z,12.00
2023-02-07T13:18:06.616Z,13.55
2023-02-07T13:21:05.765Z,13.60
2023-02-07T13:23:43.826Z,13.10
2023-02-07T13:26:21.753Z,15.85
2023-02-07T13:28:58.221Z,13.63
2023-02-07T13:31:43.147Z,12.13
2023-02-07T13:34:27.987Z,11.65
2023-02-07T13:37:11.218Z,12.57
2023-02-07T13:40:14.897Z,15.35
2023-02-07T13:43:00.783Z,11.38
2023-02-07T13:45:58.763Z,12.18
2023-02-07T13:48:46.128Z,13.05
2023-02-07T13:51:28.926Z,15.90
2023-02-07T13:54:07.799Z,12.35
2023-02-07T13:56:58.081Z,25.58
2023-02-07T13:59:38.840Z,14.15
2023-02-07T14:02:18.048Z,14.40
2023-02-07T14:04:56.078Z,13.48
2023-02-07T14:07:31.354Z,11.10
2023-02-07T14:10:04.652Z,10.98
2023-02-07T14:12:40.685Z,11.88
2023-02-07T14:15:18.788Z,15.32
2023-02-07T14:18:01.210Z,13.63
2023-02-07T14:20:36.343Z,12.05
2023-02-07T14:23:49.536Z,13.52
2023-02-07T14:26:51.543Z,12.77
2023-02-07T14:29:23.409Z,14.55
2023-02-07T14:32:22.586Z,13.90
2023-02-07T14:35:03.094Z,16.05
2023-02-07T14:37:46.326Z,12.02
2023-02-07T14:40:18.870Z,13.13
2023-02-07T14:43:14.025Z,13.20
2023-02-07T14:45:52.251Z,11.65
2023-02-07T14:48:45.583Z,11.98
2023-02-07T14:51:31.326Z,12.75
2023-02-07T14:54:15.399Z,14.23
2023-02-07T14:57:13.338Z,13.95
2023-02-07T14:59:54.216Z,12.65
2023-02-07T15:02:40.994Z,11.57
2023-02-07T15:05:31.520Z,13.23
2023-02-07T15:08:03.347Z,16.45
2023-02-07T15:10:40.250Z,12.30
2023-02-07T15:13:43.050Z,13.65
2023-02-07T15:16:22.791Z,13.18
2023-02-07T15:19:23.148Z,15.77
2023-02-07T15:21:55.728Z,12.93
2023-02-07T15:24:50.939Z,15.52
2023-02-07T15:27:27.074Z,15.07
2023-02-07T15:30:06.613Z,15.77
2023-02-07T15:32:44.017Z,16.60
2023-02-07T15:35:36.824Z,17.35
2023-02-07T15:38:23.949Z,24.75
2023-02-07T15:40:55.924Z,16.50
2023-02-07T15:43:34.087Z,16.88
2023-02-07T15:46:11.802Z,16.75
2023-02-07T15:48:52.305Z,18.48
2023-02-07T15:51:30.208Z,14.63
2023-02-07T15:54:02.433Z,16.15
2023-02-07T15:56:34.722Z,20.13
2023-02-07T15:59:11.157Z,18.17
2023-02-07T16:01:43.325Z,18.05
2023-02-07T16:04:15.442Z,19.75
2023-02-07T16:07:01.040Z,27.77
2023-02-07T16:09:42.391Z,20.25
2023-02-07T16:12:40.786Z,22.08
2023-02-07T16:16:06.960Z,20.90
2023-02-07T16:18:42.573Z,19.10
2023-02-07T16:21:25.455Z,17.15
2023-02-07T16:24:18.569Z,22.65
2023-02-07T16:26:51.321Z,17.67
2023-02-07T16:29:26.302Z,25.65
2023-02-07T16:31:58.338Z,39.55
2023-02-07T16:34:30.244Z,43.38
2023-02-07T16:37:02.108Z,28.15
2023-02-07T16:39:33.922Z,27.83
2023-02-07T16:42:09.825Z,26.27
2023-02-07T16:44:41.815Z,23.58
2023-02-07T16:47:14.625Z,30.35
2023-02-07T16:49:47.205Z,21.85
2023-02-07T16:52:19.089Z,28.15
2023-02-07T16:54:50.948Z,30.42
2023-02-07T16:57:23.089Z,24.73
2023-02-07T16:59:54.876Z,27.05
2023-02-07T17:02:27.526Z,27.02
2023-02-07T17:04:59.466Z,29.92
2023-02-07T17:07:31.365Z,27.50
2023-02-07T17:10:09.478Z,22.40
2023-02-07T17:12:43.172Z,21.23
2023-02-07T17:15:15.438Z,22.00
2023-02-07T17:17:47.968Z,18.85
2023-02-07T17:20:25.783Z,20.98
2023-02-07T17:22:57.654Z,24.52
2023-02-07T17:25:30.233Z,23.08
2023-02-07T17:28:02.475Z,25.63
2023-02-07T17:30:40.125Z,25.17
2023-02-07T17:33:12.339Z,22.85
2023-02-07T17:35:44.310Z,22.98
2023-02-07T17:38:16.162Z,23.83
2023-02-07T17:40:48.156Z,29.77
2023-02-07T17:43:20.036Z,24.45
2023-02-07T17:45:51.982Z,26.27
2023-02-07T17:48:23.883Z,24.20
2023-02-07T17:50:56.914Z,24.77
2023-02-07T17:53:28.846Z,23.38
2023-02-07T17:56:00.643Z,23.17
2023-02-07T17:58:34.677Z,26.45
2023-02-07T18:01:06.655Z,28.55
2023-02-07T18:03:38.552Z,36.25
2023-02-07T18:06:13.986Z,27.50
2023-02-07T18:08:46.754Z,28.45
2023-02-07T18:11:19.309Z,35.45
2023-02-07T18:13:51.164Z,34.50
2023-02-07T18:16:25.246Z,34.05
2023-02-07T18:18:57.979Z,47.05
2023-02-07T18:21:30.368Z,48.10
2023-02-07T18:24:04.051Z,35.22
2023-02-07T18:26:36.001Z,41.30
2023-02-07T18:29:08.029Z,32.67
2023-02-07T18:31:40.067Z,34.20
2023-02-07T18:34:11.991Z,34.70
2023-02-07T18:36:44.032Z,46.70
2023-02-07T18:39:15.943Z,34.13
2023-02-07T18:41:47.727Z,32.28
2023-02-07T18:44:20.362Z,30.08
2023-02-07T18:46:52.277Z,26.05
2023-02-07T18:49:24.215Z,30.15
2023-02-07T18:51:56.241Z,29.70
2023-02-07T18:54:28.264Z,37.20
2023-02-07T18:57:00.886Z,44.92
2023-02-07T18:59:34.107Z,37.10
2023-02-07T19:02:07.036Z,31.80
2023-02-07T19:04:39.240Z,30.27
2023-02-07T19:07:12.075Z,33.10
2023-02-07T19:09:43.982Z,35.47
2023-02-07T19:12:15.916Z,40.88
2023-02-07T19:14:47.718Z,35.05
2023-02-07T19:17:20.122Z,29.30
2023-02-07T19:19:52.645Z,28.95
2023-02-07T19:22:35.389Z,27.95
2023-02-07T19:25:07.959Z,30.02
2023-02-07T19:27:39.842Z,33.40
2023-02-07T19:30:12.224Z,28.58
2023-02-07T19:32:44.229Z,29.40
2023-02-07T19:35:16.618Z,38.40
2023-02-07T19:37:48.597Z,65.32
2023-02-07T19:40:20.444Z,35.95
2023-02-07T19:42:52.292Z,30.17
2023-02-07T19:45:26.428Z,34.17
2023-02-07T19:47:58.277Z,31.13
2023-02-07T19:50:30.865Z,28.67
2023-02-07T19:53:03.735Z,31.15
2023-02-07T19:55:38.458Z,26.70
2023-02-07T19:58:10.430Z,31.30
2023-02-07T20:00:43.224Z,32.65
2023-02-07T20:03:15.339Z,32.95
2023-02-07T20:05:47.280Z,61.97
2023-02-07T20:08:20.220Z,38.88
2023-02-07T20:10:52.146Z,32.10
2023-02-07T20:13:24.076Z,51.15
2023-02-07T20:15:55.979Z,90.00
2023-02-07T20:18:28.102Z,39.85
2023-02-07T20:21:10.891Z,48.42
2023-02-07T20:23:46.718Z,58.88
2023-02-07T20:26:24.768Z,49.20
2023-02-07T20:29:01.817Z,31.58
2023-02-07T20:31:33.795Z,26.27
2023-02-07T20:34:06.100Z,30.50
2023-02-07T20:36:41.352Z,29.25
2023-02-07T20:39:15.934Z,31.25
2023-02-07T20:41:50.244Z,29.88
2023-02-07T20:44:24.510Z,27.63
2023-02-07T20:46:59.407Z,27.23
2023-02-07T20:49:31.925Z,28.58
2023-02-07T20:52:04.074Z,26.73
2023-02-07T20:54:36.116Z,31.15
2023-02-07T20:57:08.131Z,39.63
2023-02-07T20:59:40.037Z,66.63
2023-02-07T21:02:13.364Z,27.45
2023-02-07T21:04:45.249Z,26.23
2023-02-07T21:07:17.076Z,26.15
2023-02-07T21:09:49.191Z,25.35
2023-02-07T21:12:21.333Z,26.17
2023-02-07T21:14:53.251Z,27.08
2023-02-07T21:17:25.175Z,28.60
2023-02-07T21:19:57.077Z,28.08
2023-02-07T21:22:28.952Z,24.45
2023-02-07T21:25:00.837Z,26.67
2023-02-07T21:27:33.146Z,28.52
2023-02-07T21:30:05.686Z,27.60
2023-02-07T21:32:37.542Z,31.17
2023-02-07T21:35:09.464Z,30.20
2023-02-07T21:37:41.361Z,26.92
2023-02-07T21:40:13.335Z,26.02
2023-02-07T21:42:45.323Z,27.55
2023-02-07T21:45:17.461Z,30.00
2023-02-07T21:47:49.451Z,27.60
2023-02-07T21:50:21.343Z,24.48
2023-02-07T21:52:53.447Z,30.83
2023-02-07T21:55:25.345Z,27.85
2023-02-07T21:57:57.386Z,24.20
2023-02-07T22:00:29.280Z,27.42
2023-02-07T22:03:01.128Z,24.83
2023-02-07T22:05:33.455Z,26.98
2023-02-07T22:08:05.453Z,24.30
2023-02-07T22:10:38.867Z,20.13
2023-02-07T22:13:12.454Z,23.77
2023-02-07T22:15:48.801Z,23.45
2023-02-07T22:18:20.773Z,23.33
2023-02-07T22:20:52.791Z,21.92
2023-02-07T22:23:24.589Z,20.98
2023-02-07T22:25:56.600Z,21.60
2023-02-07T22:28:28.940Z,19.98
2023-02-07T22:31:00.989Z,19.27
2023-02-07T22:33:32.930Z,17.92
2023-02-07T22:36:05.423Z,19.38
2023-02-07T22:38:37.251Z,19.55
2023-02-07T22:41:09.928Z,16.35
2023-02-07T22:43:41.812Z,19.63
2023-02-07T22:46:18.966Z,21.60
2023-02-07T22:48:51.845Z,18.80
2023-02-07T22:51:34.087Z,21.73
2023-02-07T22:54:08.795Z,18.83
2023-02-07T22:56:40.671Z,14.57
2023-02-07T22:59:12.626Z,16.45
2023-02-07T23:01:45.130Z,14.60
2023-02-07T23:04:17.959Z,13.98
2023-02-07T23:06:51.283Z,16.10
2023-02-07T23:09:23.176Z,13.52
2023-02-07T23:11:55.126Z,12.32
2023-02-07T23:14:27.031Z,12.32
2023-02-07T23:16:58.846Z,14.75
2023-02-07T23:19:31.080Z,16.05
2023-02-07T23:22:03.056Z,13.07
2023-02-07T23:24:35.054Z,12.85
2023-02-07T23:27:06.861Z,11.68
2023-02-07T23:29:39.086Z,13.70
2023-02-07T23:32:10.888Z,11.13
2023-02-07T23:34:42.855Z,10.07
2023-02-07T23:37:14.832Z,11.68
2023-02-07T23:39:46.702Z,9.75
2023-02-07T23:42:18.602Z,11.75
2023-02-07T23:44:50.525Z,9.45
2023-02-07T23:47:22.425Z,9.18
2023-02-07T23:49:54.297Z,12.18
2023-02-07T23:52:26.157Z,9.15
2023-02-07T23:54:58.097Z,10.82
2023-02-07T23:57:29.965Z,11.20
